Time;durP1;ratioP1;P1;durP2;ratioP2;P2;SDS_P1;SDS_P2;PMS_P1;PMS_P2;Temp;Humidity;BMP_temperature;BMP_pressure;BME280_temperature;BME280_humidity;BME280_pressure;Samples;Min_cycle;Max_cycle;Signal;HPM_P1;HPM_P2
2023/05/11 00:01:54;;;;;;;9.70;6.93;;;13.40;99.90;;;;;;4994783;28;20030;-93
2023/05/11 00:04:20;;;;;;;10.80;6.63;;;13.40;99.90;;;;;;5013248;28;20041;-93
2023/05/11 00:06:46;;;;;;;9.52;7.53;;;13.40;99.90;;;;;;4996038;28;20060;-91
2023/05/11 00:09:11;;;;;;;12.35;8.30;;;13.40;99.90;;;;;;5006871;28;20029;-92
2023/05/11 00:11:37;;;;;;;10.95;8.63;;;13.40;99.90;;;;;;5008412;28;20029;-93
2023/05/11 00:14:03;;;;;;;13.45;9.95;;;13.40;99.90;;;;;;4991569;28;20053;-91
2023/05/11 00:16:28;;;;;;;12.88;9.68;;;13.40;99.90;;;;;;4989587;28;20029;-92
2023/05/11 00:18:54;;;;;;;13.00;8.68;;;13.40;99.90;;;;;;4996124;28;20025;-93
2023/05/11 00:21:21;;;;;;;10.27;7.82;;;13.30;99.90;;;;;;4995106;28;20037;-91
2023/05/11 00:23:48;;;;;;;9.15;7.22;;;13.30;99.90;;;;;;4994682;28;20087;-93
2023/05/11 00:26:13;;;;;;;11.20;7.72;;;13.40;99.90;;;;;;5025363;28;20041;-91
2023/05/11 00:28:41;;;;;;;8.38;6.68;;;13.30;99.90;;;;;;4994126;28;20036;-93
2023/05/11 00:31:06;;;;;;;12.48;9.07;;;13.40;99.90;;;;;;4994396;28;20021;-90
2023/05/11 00:33:32;;;;;;;11.00;8.13;;;13.30;99.90;;;;;;5008337;28;20539;-92
2023/05/11 00:35:58;;;;;;;14.25;10.13;;;13.30;99.90;;;;;;5007010;28;20533;-91
2023/05/11 00:38:23;;;;;;;14.90;10.07;;;13.30;99.90;;;;;;4995849;28;20021;-93
2023/05/11 00:40:49;;;;;;;13.48;8.50;;;13.20;99.90;;;;;;4995799;28;20090;-91
2023/05/11 00:43:15;;;;;;;12.38;8.98;;;13.20;99.90;;;;;;5009905;28;20103;-91
2023/05/11 00:45:42;;;;;;;11.43;9.15;;;13.20;99.90;;;;;;4995055;28;20160;-90
2023/05/11 00:48:07;;;;;;;13.23;9.23;;;13.20;99.90;;;;;;4995572;28;20029;-90
2023/05/11 00:50:34;;;;;;;13.57;10.05;;;13.20;99.90;;;;;;4995245;28;20309;-89
2023/05/11 00:53:01;;;;;;;14.88;9.60;;;13.30;99.90;;;;;;5007618;28;20501;-93
2023/05/11 00:55:27;;;;;;;12.25;9.15;;;13.20;99.90;;;;;;4990690;28;20022;-90
2023/05/11 00:57:53;;;;;;;12.15;9.23;;;13.30;99.90;;;;;;5001842;28;20101;-90
2023/05/11 01:00:19;;;;;;;11.98;8.85;;;13.30;99.90;;;;;;4993104;28;20462;-90
2023/05/11 01:02:45;;;;;;;12.65;10.18;;;13.30;99.90;;;;;;4993258;28;20034;-89
2023/05/11 01:05:11;;;;;;;13.88;10.00;;;13.20;99.90;;;;;;5006124;28;20433;-91
2023/05/11 01:07:58;;;;;;;14.18;11.35;;;13.20;99.90;;;;;;4994878;28;20363;-90
2023/05/11 01:10:57;;;;;;;16.55;11.07;;;13.20;99.90;;;;;;5007696;28;20040;-90
2023/05/11 01:13:32;;;;;;;13.80;9.75;;;13.20;99.90;;;;;;4992395;28;20060;-91
2023/05/11 01:16:02;;;;;;;10.98;8.32;;;13.20;99.90;;;;;;4989739;28;20037;-91
2023/05/11 01:18:39;;;;;;;13.73;9.82;;;13.20;99.90;;;;;;5011515;28;20022;-91
2023/05/11 01:21:11;;;;;;;12.95;8.90;;;13.20;99.90;;;;;;5007555;28;20104;-92
2023/05/11 01:23:55;;;;;;;11.48;8.73;;;13.20;99.90;;;;;;4992896;28;20494;-92
2023/05/11 01:26:43;;;;;;;12.45;8.48;;;13.30;99.90;;;;;;4989654;28;20021;-92
2023/05/11 01:29:36;;;;;;;9.45;7.18;;;13.20;99.90;;;;;;4988586;28;20496;-91
2023/05/11 01:32:08;;;;;;;9.18;6.63;;;13.20;99.90;;;;;;4992555;28;20433;-89
2023/05/11 01:34:38;;;;;;;9.15;6.90;;;13.20;99.90;;;;;;5005225;28;20026;-88
2023/05/11 01:37:09;;;;;;;10.73;7.88;;;13.30;99.90;;;;;;4994775;28;20094;-88
2023/05/11 01:39:41;;;;;;;10.68;8.38;;;13.30;99.90;;;;;;4988682;28;20045;-88
2023/05/11 01:42:10;;;;;;;10.25;7.72;;;13.20;99.90;;;;;;4990292;28;20045;-88
2023/05/11 01:44:43;;;;;;;9.98;7.80;;;13.20;99.90;;;;;;4991790;28;20061;-89
2023/05/11 01:47:10;;;;;;;15.07;11.73;;;13.20;99.90;;;;;;5003495;28;20371;-88
2023/05/11 01:49:39;;;;;;;14.13;11.15;;;13.20;99.90;;;;;;4989888;28;20022;-88
2023/05/11 01:52:08;;;;;;;13.00;10.20;;;13.20;99.90;;;;;;5006680;28;20462;-88
2023/05/11 01:54:37;;;;;;;16.05;11.82;;;13.10;99.90;;;;;;5008250;28;20029;-89
2023/05/11 01:57:04;;;;;;;14.43;11.30;;;13.10;99.90;;;;;;4987040;28;20375;-88
2023/05/11 01:59:31;;;;;;;12.50;9.77;;;13.00;99.90;;;;;;5014973;28;20120;-88
2023/05/11 02:01:57;;;;;;;11.05;9.20;;;12.90;99.90;;;;;;4995976;28;20071;-88
2023/05/11 02:04:24;;;;;;;11.85;8.07;;;13.00;99.90;;;;;;4997217;28;20405;-87
2023/05/11 02:06:52;;;;;;;10.88;8.32;;;12.90;99.90;;;;;;4996198;28;20056;-87
2023/05/11 02:09:18;;;;;;;10.20;8.00;;;12.90;99.90;;;;;;4996774;28;20116;-87
2023/05/11 02:11:48;;;;;;;18.15;14.90;;;13.00;99.90;;;;;;4997797;28;20025;-87
2023/05/11 02:14:22;;;;;;;16.63;12.55;;;12.90;99.90;;;;;;4994619;28;20057;-86
2023/05/11 02:16:49;;;;;;;11.88;9.45;;;13.00;99.90;;;;;;4993252;28;20423;-87
2023/05/11 02:19:16;;;;;;;15.00;11.27;;;12.90;99.90;;;;;;4995342;28;20034;-87
2023/05/11 02:21:43;;;;;;;12.82;10.52;;;12.90;99.90;;;;;;5010500;28;20025;-86
2023/05/11 02:24:09;;;;;;;11.45;9.35;;;12.90;99.90;;;;;;4991905;28;20057;-86
2023/05/11 02:26:35;;;;;;;13.00;10.07;;;12.90;99.90;;;;;;5005399;28;20037;-87
2023/05/11 02:29:01;;;;;;;16.10;13.40;;;12.90;99.90;;;;;;4994401;28;20026;-86
2023/05/11 02:31:31;;;;;;;14.05;11.88;;;12.90;99.90;;;;;;5009854;28;20037;-86
2023/05/11 02:34:08;;;;;;;17.92;13.20;;;12.90;99.90;;;;;;4991902;28;20028;-88
2023/05/11 02:36:37;;;;;;;17.48;13.02;;;12.90;99.90;;;;;;5012601;28;20056;-87
2023/05/11 02:39:07;;;;;;;;;;;12.90;99.90;;;;;;4998788;28;20421;-88
2023/05/11 02:41:40;;;;;;;21.10;15.88;;;12.90;99.90;;;;;;5014353;28;19928;-87
2023/05/11 02:44:10;;;;;;;15.93;12.27;;;12.90;99.90;;;;;;4995056;28;20068;-87
2023/05/11 02:46:39;;;;;;;18.80;14.73;;;12.90;99.90;;;;;;5024842;28;20087;-88
2023/05/11 02:49:08;;;;;;;15.43;12.32;;;12.80;99.90;;;;;;4997218;28;20068;-88
2023/05/11 02:51:40;;;;;;;20.87;14.93;;;12.90;99.90;;;;;;5007864;28;20030;-88
2023/05/11 02:54:09;;;;;;;13.98;10.80;;;12.80;99.90;;;;;;4994972;28;20052;-89
2023/05/11 02:56:38;;;;;;;15.07;10.75;;;12.80;99.90;;;;;;5012977;28;20025;-88
2023/05/11 02:59:04;;;;;;;14.13;10.25;;;12.80;99.90;;;;;;4996988;28;20029;-88
2023/05/11 03:01:30;;;;;;;11.95;8.77;;;12.80;99.90;;;;;;4991058;28;20030;-88
2023/05/11 03:03:56;;;;;;;13.70;10.23;;;12.80;99.90;;;;;;4995512;28;20070;-88
2023/05/11 03:06:24;;;;;;;10.95;8.77;;;12.80;99.90;;;;;;5008763;28;20057;-88
2023/05/11 03:08:50;;;;;;;13.13;9.27;;;12.80;99.90;;;;;;4994232;28;20021;-86
2023/05/11 03:11:17;;;;;;;11.52;8.95;;;12.80;99.90;;;;;;4993245;28;20099;-88
2023/05/11 03:13:45;;;;;;;13.30;9.57;;;12.90;99.90;;;;;;5006334;28;20045;-87
2023/05/11 03:16:12;;;;;;;11.57;9.50;;;12.80;99.90;;;;;;4997513;28;20377;-88
2023/05/11 03:18:38;;;;;;;14.00;9.48;;;12.90;99.90;;;;;;4992377;28;20021;-88
2023/05/11 03:21:05;;;;;;;11.50;9.05;;;12.90;99.90;;;;;;4993805;28;20031;-87
2023/05/11 03:23:33;;;;;;;12.00;9.35;;;12.90;99.90;;;;;;4995084;28;20029;-87
2023/05/11 03:26:00;;;;;;;12.85;9.35;;;12.80;99.90;;;;;;4993097;28;20038;-87
2023/05/11 03:28:28;;;;;;;8.82;7.68;;;12.80;99.90;;;;;;4995570;28;20116;-88
2023/05/11 03:31:04;;;;;;;13.90;10.05;;;12.80;99.90;;;;;;4996508;28;20033;-87
2023/05/11 03:33:31;;;;;;;12.70;9.15;;;12.80;99.90;;;;;;4993223;28;20417;-87
2023/05/11 03:35:59;;;;;;;10.23;6.82;;;12.90;99.90;;;;;;4996221;28;20041;-89
2023/05/11 03:38:27;;;;;;;13.02;9.10;;;12.90;99.90;;;;;;4992837;28;20125;-88
2023/05/11 03:40:56;;;;;;;15.38;10.77;;;12.90;99.90;;;;;;4998174;28;20092;-86
2023/05/11 03:43:29;;;;;;;13.10;8.60;;;12.90;99.90;;;;;;4995710;28;20029;-86
2023/05/11 03:45:56;;;;;;;11.70;8.73;;;12.90;99.90;;;;;;4993357;28;20132;-87
2023/05/11 03:48:23;;;;;;;11.43;8.70;;;12.90;99.90;;;;;;4989819;28;20026;-87
2023/05/11 03:50:50;;;;;;;11.77;7.85;;;12.90;99.90;;;;;;4996172;28;20548;-88
2023/05/11 03:53:17;;;;;;;9.98;7.38;;;12.90;99.90;;;;;;5010404;28;20037;-87
2023/05/11 03:55:42;;;;;;;11.85;7.80;;;13.00;99.90;;;;;;4992773;28;20367;-88
2023/05/11 03:58:09;;;;;;;13.07;8.43;;;12.90;99.90;;;;;;4993289;28;20069;-86
2023/05/11 04:00:39;;;;;;;10.55;8.25;;;13.00;99.90;;;;;;4995408;28;20025;-88
2023/05/11 04:03:07;;;;;;;11.98;8.45;;;13.00;99.90;;;;;;4995239;28;20124;-87
2023/05/11 04:05:33;;;;;;;13.93;9.15;;;13.00;99.90;;;;;;5004905;28;20037;-86
2023/05/11 04:08:03;;;;;;;10.63;7.95;;;13.00;99.90;;;;;;5000841;28;20148;-88
2023/05/11 04:10:29;;;;;;;10.43;7.68;;;13.00;99.90;;;;;;4995593;28;20099;-88
2023/05/11 04:12:55;;;;;;;11.60;8.10;;;13.00;99.90;;;;;;4990232;28;20058;-87
2023/05/11 04:15:21;;;;;;;11.45;8.00;;;13.00;99.90;;;;;;5007032;28;20026;-87
2023/05/11 04:17:47;;;;;;;10.38;8.10;;;13.10;99.90;;;;;;4988644;28;20117;-87
2023/05/11 04:20:13;;;;;;;12.13;8.27;;;13.00;99.90;;;;;;4993578;28;20041;-88
2023/05/11 04:22:38;;;;;;;10.38;7.50;;;13.10;99.90;;;;;;4993663;28;20026;-87
2023/05/11 04:25:04;;;;;;;11.30;8.45;;;13.10;99.90;;;;;;5007576;28;20045;-88
2023/05/11 04:27:33;;;;;;;10.10;7.60;;;13.00;99.90;;;;;;4989826;28;20064;-89
2023/05/11 04:29:59;;;;;;;10.13;6.88;;;13.10;99.90;;;;;;5009828;28;20053;-89
2023/05/11 04:32:29;;;;;;;10.32;7.40;;;13.10;99.90;;;;;;4994327;28;20055;-86
2023/05/11 04:34:55;;;;;;;10.55;7.55;;;13.00;99.90;;;;;;4990242;28;20030;-88
2023/05/11 04:37:23;;;;;;;7.55;5.10;;;13.00;99.90;;;;;;5010154;28;20048;-89
2023/05/11 04:39:49;;;;;;;9.93;6.68;;;13.10;99.90;;;;;;5007500;28;20141;-86
2023/05/11 04:42:15;;;;;;;10.52;7.82;;;13.10;99.90;;;;;;4994785;28;20052;-86
2023/05/11 04:44:43;;;;;;;9.57;7.30;;;13.10;99.90;;;;;;4990380;28;20065;-89
2023/05/11 04:47:11;;;;;;;11.75;7.75;;;13.10;99.90;;;;;;5007168;28;20065;-85
2023/05/11 04:49:38;;;;;;;11.25;7.68;;;13.10;99.90;;;;;;4993911;28;20120;-88
2023/05/11 04:52:04;;;;;;;9.63;6.53;;;13.10;99.90;;;;;;5009468;28;20029;-90
2023/05/11 04:54:30;;;;;;;10.68;7.13;;;13.10;99.90;;;;;;5008589;28;20026;-88
2023/05/11 04:56:56;;;;;;;11.50;7.95;;;13.10;99.90;;;;;;4995934;28;20493;-85
2023/05/11 04:59:22;;;;;;;10.48;7.35;;;13.10;99.90;;;;;;5025090;28;20619;-86
2023/05/11 05:01:47;;;;;;;9.25;6.68;;;13.10;99.90;;;;;;4990518;28;20032;-89
2023/05/11 05:04:13;;;;;;;9.90;6.80;;;13.10;99.90;;;;;;4972923;28;20701;-84
2023/05/11 05:06:39;;;;;;;10.93;7.50;;;13.10;99.90;;;;;;5005383;28;20139;-84
2023/05/11 05:09:04;;;;;;;11.15;7.00;;;13.10;99.90;;;;;;5008066;28;20037;-84
2023/05/11 05:11:31;;;;;;;9.85;6.88;;;13.10;99.90;;;;;;4992536;28;20156;-84
2023/05/11 05:13:56;;;;;;;10.55;7.47;;;13.00;99.90;;;;;;4999006;28;20115;-84
2023/05/11 05:16:22;;;;;;;11.82;8.32;;;13.10;99.90;;;;;;4992907;28;20053;-83
2023/05/11 05:18:48;;;;;;;10.07;7.30;;;13.10;99.90;;;;;;4990994;28;20026;-83
2023/05/11 05:21:14;;;;;;;10.80;7.22;;;13.00;99.90;;;;;;5011092;28;20497;-85
2023/05/11 05:23:40;;;;;;;12.68;8.70;;;13.00;99.90;;;;;;5006369;28;20033;-87
2023/05/11 05:26:06;;;;;;;12.90;8.13;;;13.00;99.90;;;;;;5008737;28;20040;-85
2023/05/11 05:28:34;;;;;;;12.88;8.80;;;13.00;99.90;;;;;;4991338;28;20032;-87
2023/05/11 05:31:01;;;;;;;11.85;8.70;;;13.00;99.90;;;;;;4994550;28;20030;-85
2023/05/11 05:33:27;;;;;;;13.73;9.02;;;13.00;99.90;;;;;;4996555;28;20022;-85
2023/05/11 05:35:53;;;;;;;14.65;9.30;;;13.00;99.90;;;;;;5012058;28;20029;-85
2023/05/11 05:38:19;;;;;;;12.68;9.48;;;13.10;99.90;;;;;;4994197;28;20025;-85
2023/05/11 05:40:45;;;;;;;11.63;9.10;;;13.10;99.90;;;;;;5011485;28;20022;-86
2023/05/11 05:43:11;;;;;;;12.02;9.20;;;13.10;99.90;;;;;;4998031;28;20389;-84
2023/05/11 05:45:37;;;;;;;13.07;9.02;;;13.10;99.90;;;;;;4998133;28;20120;-85
2023/05/11 05:48:05;;;;;;;13.85;8.60;;;13.10;99.90;;;;;;4995624;28;20061;-86
2023/05/11 05:50:32;;;;;;;11.52;8.15;;;13.10;99.90;;;;;;4993441;28;20112;-84
2023/05/11 05:52:58;;;;;;;9.70;7.05;;;13.10;99.90;;;;;;4995482;28;20112;-85
2023/05/11 05:55:26;;;;;;;11.20;7.38;;;13.10;99.90;;;;;;4994101;28;20026;-85
2023/05/11 05:57:53;;;;;;;10.43;7.53;;;13.10;99.90;;;;;;5014273;28;20029;-85
2023/05/11 06:00:18;;;;;;;10.52;7.60;;;13.10;99.90;;;;;;4996548;28;20057;-85
2023/05/11 06:02:52;;;;;;;10.30;7.50;;;13.10;99.90;;;;;;5011695;28;20025;-84
2023/05/11 06:05:22;;;;;;;9.60;7.38;;;13.00;99.90;;;;;;4998349;28;20029;-85
2023/05/11 06:07:48;;;;;;;8.23;6.57;;;13.10;99.90;;;;;;5012024;28;20034;-85
2023/05/11 06:10:14;;;;;;;9.57;5.78;;;13.20;99.90;;;;;;5010552;28;20042;-84
2023/05/11 06:12:40;;;;;;;11.18;7.45;;;13.10;99.90;;;;;;5007333;28;20048;-84
2023/05/11 06:15:06;;;;;;;9.80;6.97;;;13.10;99.90;;;;;;4992198;28;20034;-84
2023/05/11 06:17:34;;;;;;;13.33;10.33;;;13.00;99.90;;;;;;5009596;28;20028;-84
2023/05/11 06:20:00;;;;;;;11.98;8.35;;;13.00;99.90;;;;;;4993124;28;20037;-85
2023/05/11 06:22:29;;;;;;;9.65;7.70;;;13.00;99.90;;;;;;5012070;28;20065;-84
2023/05/11 06:24:55;;;;;;;9.98;5.80;;;13.10;99.90;;;;;;5023393;28;20083;-84
2023/05/11 06:27:21;;;;;;;7.18;4.82;;;13.10;99.90;;;;;;4996587;28;20113;-85
2023/05/11 06:29:48;;;;;;;7.15;4.35;;;13.20;99.90;;;;;;4992776;28;20060;-89
2023/05/11 06:32:14;;;;;;;5.95;3.88;;;13.30;99.90;;;;;;4992047;28;20026;-85
2023/05/11 06:34:41;;;;;;;7.15;4.97;;;13.40;99.90;;;;;;4994979;28;20029;-85
2023/05/11 06:37:08;;;;;;;8.55;5.82;;;13.30;99.90;;;;;;5009348;28;20049;-85
2023/05/11 06:39:36;;;;;;;6.90;4.70;;;13.30;99.90;;;;;;4991598;28;20119;-87
2023/05/11 06:42:03;;;;;;;6.45;4.47;;;13.40;99.90;;;;;;5007741;28;20052;-86
2023/05/11 06:44:29;;;;;;;7.63;4.70;;;13.50;99.90;;;;;;5008598;28;20057;-85
2023/05/11 06:46:56;;;;;;;6.22;3.75;;;13.50;99.90;;;;;;4997671;28;20297;-84
2023/05/11 06:49:22;;;;;;;5.15;3.60;;;13.50;99.90;;;;;;4994405;28;20057;-85
2023/05/11 06:51:48;;;;;;;6.88;4.70;;;13.60;99.90;;;;;;5010043;28;20136;-84
2023/05/11 06:54:13;;;;;;;4.05;2.85;;;13.60;99.90;;;;;;4996079;28;20096;-83
2023/05/11 06:56:39;;;;;;;5.35;3.88;;;13.70;99.90;;;;;;5005507;28;20402;-84
2023/05/11 06:59:08;;;;;;;4.88;3.00;;;13.60;99.90;;;;;;4995660;28;20025;-85
2023/05/11 07:01:33;;;;;;;4.40;3.15;;;13.60;99.90;;;;;;5021887;28;20556;-84
2023/05/11 07:03:59;;;;;;;5.35;2.75;;;13.70;99.90;;;;;;5009351;28;20025;-86
2023/05/11 07:06:24;;;;;;;5.30;2.58;;;13.70;99.90;;;;;;5012934;28;20079;-86
2023/05/11 07:08:50;;;;;;;5.40;3.42;;;13.90;99.90;;;;;;5026140;28;20367;-85
2023/05/11 07:11:16;;;;;;;6.05;4.10;;;14.10;99.90;;;;;;5003857;28;20116;-84
2023/05/11 07:13:41;;;;;;;4.20;2.33;;;14.10;99.90;;;;;;5001472;28;20069;-84
2023/05/11 07:16:07;;;;;;;4.15;2.90;;;14.40;99.90;;;;;;4992735;28;20052;-84
2023/05/11 07:18:33;;;;;;;5.22;3.30;;;14.60;99.90;;;;;;5007477;28;20034;-84
2023/05/11 07:20:58;;;;;;;5.10;3.22;;;14.40;99.90;;;;;;5027650;28;20041;-84
2023/05/11 07:23:24;;;;;;;8.02;5.07;;;14.50;99.90;;;;;;5020805;28;20111;-84
2023/05/11 07:25:52;;;;;;;6.43;4.68;;;14.50;99.90;;;;;;5027028;28;20048;-84
2023/05/11 07:28:18;;;;;;;6.65;4.70;;;14.50;99.90;;;;;;4991223;28;20060;-84
2023/05/11 07:30:43;;;;;;;5.72;3.60;;;14.60;99.90;;;;;;4991978;28;20186;-85
2023/05/11 07:33:09;;;;;;;6.20;4.55;;;14.90;99.90;;;;;;4989780;28;20064;-83
2023/05/11 07:35:35;;;;;;;5.78;3.33;;;15.00;99.90;;;;;;4991880;28;20025;-83
2023/05/11 07:38:00;;;;;;;6.93;5.00;;;15.00;99.90;;;;;;5008112;28;20034;-85
2023/05/11 07:40:26;;;;;;;6.60;3.83;;;14.90;99.90;;;;;;5003183;28;20033;-85
2023/05/11 07:42:52;;;;;;;5.80;4.40;;;15.10;99.90;;;;;;5019161;28;20025;-86
2023/05/11 07:45:18;;;;;;;7.53;4.47;;;15.10;99.90;;;;;;4987687;28;20118;-86
2023/05/11 07:47:44;;;;;;;4.93;2.97;;;15.00;99.90;;;;;;4986562;28;20033;-88
2023/05/11 07:50:09;;;;;;;3.65;2.70;;;15.20;99.90;;;;;;5021232;28;20056;-86
2023/05/11 07:52:35;;;;;;;4.45;2.90;;;15.10;99.90;;;;;;4991081;28;20051;-86
2023/05/11 07:55:01;;;;;;;3.17;2.80;;;15.20;99.90;;;;;;5019262;28;20169;-85
2023/05/11 07:57:27;;;;;;;6.20;3.53;;;15.10;99.90;;;;;;5002231;28;20022;-86
2023/05/11 07:59:52;;;;;;;5.70;3.85;;;15.00;99.90;;;;;;4992259;28;20033;-86
2023/05/11 08:02:18;;;;;;;5.53;3.42;;;14.80;99.90;;;;;;5003920;28;20025;-85
2023/05/11 08:04:44;;;;;;;4.88;3.17;;;14.90;99.90;;;;;;4992284;28;20125;-86
2023/05/11 08:07:09;;;;;;;4.13;2.53;;;14.90;99.90;;;;;;4988807;28;20354;-86
2023/05/11 08:09:35;;;;;;;4.45;2.67;;;15.00;99.90;;;;;;5002644;28;20390;-85
2023/05/11 08:12:02;;;;;;;3.67;2.33;;;14.80;99.90;;;;;;4990664;28;20088;-86
2023/05/11 08:14:28;;;;;;;4.00;2.22;;;15.00;99.90;;;;;;5005854;28;20049;-87
2023/05/11 08:16:54;;;;;;;3.83;2.33;;;15.00;99.90;;;;;;4989489;28;20072;-86
2023/05/11 08:19:19;;;;;;;5.43;2.92;;;14.90;99.90;;;;;;4984022;28;20041;-88
2023/05/11 08:21:45;;;;;;;4.25;2.40;;;14.80;99.90;;;;;;4999232;28;20018;-87
2023/05/11 08:24:11;;;;;;;4.28;2.42;;;14.80;99.90;;;;;;4990720;28;20547;-85
2023/05/11 08:26:37;;;;;;;5.30;3.15;;;14.80;99.90;;;;;;5006507;28;20034;-87
2023/05/11 08:29:03;;;;;;;5.50;3.20;;;14.70;99.90;;;;;;4984998;28;20172;-86
2023/05/11 08:31:29;;;;;;;5.57;3.95;;;14.70;99.90;;;;;;4992139;28;20417;-85
2023/05/11 08:33:55;;;;;;;7.00;3.95;;;14.60;99.90;;;;;;5001754;28;20402;-85
2023/05/11 08:36:21;;;;;;;5.35;3.80;;;14.70;99.90;;;;;;5008170;28;20033;-86
2023/05/11 08:38:47;;;;;;;6.65;4.32;;;14.60;99.90;;;;;;4990036;28;20422;-87
2023/05/11 08:41:12;;;;;;;7.32;5.28;;;14.60;99.90;;;;;;4990927;28;20037;-86
2023/05/11 08:43:39;;;;;;;6.10;4.90;;;14.60;99.90;;;;;;4987319;28;20025;-87
2023/05/11 08:46:07;;;;;;;6.95;5.38;;;14.60;99.90;;;;;;5006140;28;20479;-88
2023/05/11 08:48:33;;;;;;;7.68;4.22;;;14.60;99.90;;;;;;5004346;28;20473;-86
2023/05/11 08:50:59;;;;;;;4.93;3.75;;;14.70;99.90;;;;;;4986639;28;20493;-86
2023/05/11 08:53:25;;;;;;;5.20;3.40;;;14.70;99.90;;;;;;5015632;28;20017;-86
2023/05/11 08:55:53;;;;;;;5.75;3.78;;;14.70;99.90;;;;;;4987776;28;20486;-88
2023/05/11 08:58:21;;;;;;;4.10;2.72;;;14.90;99.90;;;;;;4985140;28;20458;-86
2023/05/11 09:00:50;;;;;;;4.20;2.95;;;15.00;99.90;;;;;;4990922;28;20148;-85
2023/05/11 09:03:17;;;;;;;5.82;4.05;;;15.10;99.90;;;;;;4993888;28;20041;-86
2023/05/11 09:05:46;;;;;;;6.15;4.35;;;14.90;99.90;;;;;;4984873;28;20544;-86
2023/05/11 09:08:13;;;;;;;4.78;2.88;;;15.00;99.90;;;;;;4991010;28;20052;-86
2023/05/11 09:10:40;;;;;;;3.17;1.45;;;15.30;99.90;;;;;;5012505;28;20079;-86
2023/05/11 09:13:06;;;;;;;2.92;1.23;;;15.50;99.90;;;;;;4988799;28;20037;-88
2023/05/11 09:15:31;;;;;;;2.00;0.70;;;15.50;99.90;;;;;;5024552;28;20044;-85
2023/05/11 09:17:57;;;;;;;2.55;0.95;;;15.70;99.90;;;;;;5022962;28;20188;-85
2023/05/11 09:20:31;;;;;;;1.42;0.70;;;15.60;99.90;;;;;;5021727;28;20103;-86
2023/05/11 09:22:57;;;;;;;1.85;0.73;;;15.50;99.90;;;;;;5024824;28;20059;-85
2023/05/11 09:25:24;;;;;;;1.48;0.65;;;15.60;99.90;;;;;;5030264;28;20048;-86
2023/05/11 09:27:51;;;;;;;1.75;0.60;;;15.70;99.90;;;;;;5025320;28;20029;-85
2023/05/11 09:30:18;;;;;;;2.22;1.02;;;15.60;99.90;;;;;;5024372;28;20124;-85
2023/05/11 09:32:51;;;;;;;1.63;0.70;;;15.60;99.90;;;;;;5027279;28;20033;-86
2023/05/11 09:35:24;;;;;;;3.10;0.75;;;15.80;99.90;;;;;;5023698;28;20028;-86
2023/05/11 09:38:10;;;;;;;1.50;0.70;;;15.80;99.90;;;;;;5022172;28;20018;-85
2023/05/11 09:40:38;;;;;;;2.10;0.75;;;15.70;99.90;;;;;;5023635;28;20398;-86
2023/05/11 09:43:21;;;;;;;1.67;0.60;;;16.00;99.90;;;;;;5033757;28;20036;-87
2023/05/11 09:45:49;;;;;;;1.50;0.60;;;16.20;99.90;;;;;;5041828;28;20437;-88
2023/05/11 09:48:24;;;;;;;1.40;0.60;;;16.10;99.90;;;;;;5021560;28;20071;-85
2023/05/11 09:50:57;;;;;;;1.60;0.70;;;16.30;99.90;;;;;;5024331;28;20383;-85
2023/05/11 09:53:35;;;;;;;2.28;0.85;;;16.20;99.90;;;;;;5024413;28;20552;-85
2023/05/11 09:56:01;;;;;;;2.28;1.00;;;15.80;99.90;;;;;;5025837;28;20025;-86
2023/05/11 09:58:46;;;;;;;1.83;0.80;;;15.90;99.90;;;;;;5024525;28;20386;-86
2023/05/11 10:01:13;;;;;;;2.45;0.95;;;16.20;99.90;;;;;;5023205;28;20025;-86
2023/05/11 10:04:02;;;;;;;2.40;1.20;;;16.20;99.90;;;;;;5021942;28;20366;-85
2023/05/11 10:06:45;;;;;;;2.08;0.80;;;16.30;99.90;;;;;;5024102;28;20048;-86
2023/05/11 10:09:12;;;;;;;1.85;1.02;;;16.30;99.90;;;;;;5029084;28;20029;-85
2023/05/11 10:11:43;;;;;;;1.75;0.80;;;16.50;99.90;;;;;;5027477;28;20038;-85
2023/05/11 10:14:13;;;;;;;2.78;0.95;;;16.40;99.90;;;;;;5025378;28;20044;-87
2023/05/11 10:16:41;;;;;;;2.72;1.20;;;16.50;99.90;;;;;;5026222;28;20478;-85
2023/05/11 10:19:07;;;;;;;2.10;1.10;;;16.70;99.90;;;;;;5026249;28;20441;-85
2023/05/11 10:21:34;;;;;;;2.92;0.90;;;16.60;99.90;;;;;;5025630;28;20298;-85
2023/05/11 10:24:01;;;;;;;2.78;1.45;;;16.80;99.90;;;;;;5019367;28;20033;-85
2023/05/11 10:26:30;;;;;;;2.53;1.10;;;16.70;99.90;;;;;;5019041;28;20053;-84
2023/05/11 10:28:57;;;;;;;1.90;0.95;;;16.60;99.90;;;;;;5022000;28;20032;-86
2023/05/11 10:31:23;;;;;;;2.35;1.00;;;16.90;99.90;;;;;;5021654;28;20120;-87
2023/05/11 10:33:52;;;;;;;2.20;1.30;;;17.00;99.90;;;;;;5036587;28;20112;-85
2023/05/11 10:36:18;;;;;;;1.98;0.88;;;17.10;99.90;;;;;;5024694;28;20029;-88
2023/05/11 10:38:44;;;;;;;2.10;1.05;;;17.10;99.90;;;;;;5025653;28;20463;-84
2023/05/11 10:41:21;;;;;;;5.45;3.50;;;16.90;99.90;;;;;;5019672;28;20034;-85
2023/05/11 10:44:18;;;;;;;6.60;4.93;;;16.70;99.90;;;;;;5039199;28;20056;-85
2023/05/11 10:46:56;;;;;;;6.93;5.53;;;16.50;99.90;;;;;;5022869;28;20034;-86
2023/05/11 10:50:10;;;;;;;10.40;7.65;;;16.60;99.90;;;;;;5028821;28;20073;-84
2023/05/11 10:52:48;;;;;;;10.55;8.00;;;16.30;99.90;;;;;;5018689;28;20470;-86
2023/05/11 10:55:30;;;;;;;8.55;5.68;;;16.10;99.90;;;;;;5020684;28;20108;-85
2023/05/11 10:58:12;;;;;;;6.22;4.32;;;16.30;99.90;;;;;;5002897;28;20532;-85
2023/05/11 11:00:49;;;;;;;7.25;5.32;;;16.30;99.90;;;;;;5025435;28;20038;-85
2023/05/11 11:03:15;;;;;;;20.73;15.35;;;16.30;99.90;;;;;;5022533;28;20025;-84
2023/05/11 11:05:42;;;;;;;18.23;12.98;;;16.00;99.90;;;;;;5005743;28;20045;-85
2023/05/11 11:08:08;;;;;;;12.40;9.82;;;16.20;99.90;;;;;;5021199;28;20164;-84
2023/05/11 11:10:34;;;;;;;12.63;10.00;;;16.40;99.90;;;;;;5025108;28;20100;-82
2023/05/11 11:13:05;;;;;;;11.43;8.98;;;16.40;99.90;;;;;;5023084;28;20541;-85
2023/05/11 11:15:52;;;;;;;10.70;8.32;;;16.60;99.90;;;;;;5022380;28;20385;-84
2023/05/11 11:18:22;;;;;;;9.73;7.63;;;16.60;99.90;;;;;;5023723;28;20037;-84
2023/05/11 11:20:50;;;;;;;10.90;8.18;;;16.70;99.90;;;;;;5039886;28;20032;-85
2023/05/11 11:23:48;;;;;;;10.07;7.75;;;16.70;99.90;;;;;;5025823;28;20065;-84
2023/05/11 11:26:34;;;;;;;13.05;8.20;;;16.70;99.90;;;;;;5039400;28;20033;-84
2023/05/11 11:29:07;;;;;;;10.60;8.10;;;16.80;99.90;;;;;;5005611;28;20119;-84
2023/05/11 11:31:34;;;;;;;21.77;16.02;;;16.80;99.90;;;;;;5020649;28;20044;-87
2023/05/11 11:34:27;;;;;;;20.98;15.65;;;16.30;99.90;;;;;;5021715;28;20067;-86
2023/05/11 11:37:00;;;;;;;12.07;9.32;;;16.40;99.90;;;;;;5033694;28;20505;-86
2023/05/11 11:39:46;;;;;;;18.33;13.02;;;16.50;99.90;;;;;;5025182;28;20056;-86
2023/05/11 11:42:17;;;;;;;17.25;12.38;;;16.00;99.90;;;;;;5022818;28;20025;-85
2023/05/11 11:44:44;;;;;;;12.25;8.90;;;15.90;99.90;;;;;;5021746;28;20497;-85
2023/05/11 11:47:20;;;;;;;13.02;9.23;;;16.00;99.90;;;;;;5026552;28;20032;-85
2023/05/11 11:49:53;;;;;;;13.45;10.18;;;15.90;99.90;;;;;;5020200;28;20033;-85
2023/05/11 11:52:25;;;;;;;13.68;10.68;;;15.80;99.90;;;;;;5020418;28;20021;-86
2023/05/11 11:54:51;;;;;;;10.65;8.82;;;15.80;99.90;;;;;;5008418;28;20428;-86
2023/05/11 11:57:32;;;;;;;9.02;7.93;;;15.90;99.90;;;;;;5007664;28;20026;-86
2023/05/11 12:00:06;;;;;;;12.30;8.77;;;15.90;99.90;;;;;;5022910;28;20044;-88
2023/05/11 12:02:41;;;;;;;14.15;11.15;;;16.10;99.90;;;;;;5023180;28;20101;-86
2023/05/11 12:05:21;;;;;;;11.65;9.63;;;16.10;99.90;;;;;;5018939;28;20466;-86
2023/05/11 12:07:48;;;;;;;;;;;16.30;99.90;;;;;;5004873;28;20029;-86
2023/05/11 12:10:16;;;;;;;10.10;7.97;;;16.30;99.90;;;;;;5025762;28;20094;-86
2023/05/11 12:12:46;;;;;;;10.02;7.55;;;16.40;99.90;;;;;;5020331;28;20064;-86
2023/05/11 12:15:25;;;;;;;13.55;9.57;;;16.50;99.90;;;;;;5011867;28;20043;-86
2023/05/11 12:17:51;;;;;;;15.18;11.68;;;16.40;99.90;;;;;;5022208;28;20416;-86
2023/05/11 12:20:18;;;;;;;12.15;8.70;;;16.30;99.90;;;;;;5020886;28;20024;-87
2023/05/11 12:22:45;;;;;;;11.35;7.55;;;16.40;99.90;;;;;;5004320;28;20037;-87
2023/05/11 12:25:13;;;;;;;7.22;5.88;;;16.40;99.90;;;;;;5021597;28;20596;-86
2023/05/11 12:27:45;;;;;;;5.13;4.53;;;16.60;99.90;;;;;;5022800;28;20033;-86
2023/05/11 12:30:22;;;;;;;5.22;3.67;;;16.90;99.90;;;;;;5034900;28;20036;-86
2023/05/11 12:32:47;;;;;;;6.30;5.07;;;16.90;99.90;;;;;;5017373;28;20029;-86
2023/05/11 12:35:15;;;;;;;6.43;5.22;;;16.80;99.90;;;;;;5037250;28;20071;-86
2023/05/11 12:37:44;;;;;;;6.95;4.90;;;16.80;99.90;;;;;;5005479;28;20256;-87
2023/05/11 12:40:10;;;;;;;6.77;5.87;;;16.90;99.90;;;;;;5036688;28;20028;-88
2023/05/11 12:42:36;;;;;;;7.22;5.15;;;16.80;99.90;;;;;;5023666;28;20541;-88
2023/05/11 12:45:04;;;;;;;6.20;5.22;;;16.70;99.90;;;;;;5018067;28;20160;-88
2023/05/11 12:47:30;;;;;;;11.27;8.95;;;16.80;99.90;;;;;;5024489;28;20036;-88
2023/05/11 12:49:56;;;;;;;7.03;5.65;;;16.50;99.90;;;;;;5036505;28;20029;-87